Latest Weather Observations for Ulladulla

IDN60801

Issued at 3:42 pm EST Monday 26 September 2022 (issued every 10 minutes, with the page automatically refreshed every 10 minutes)

About weather observations | Map of weather stations | Latest weather observations for NSW | Other Formats
Station Details ID: 069138 Name: ULLADULLA AWS Lat: -35.36 Lon: 150.48 Height: 35.7 m
Data from the previous 72 hours. | See also: Recent months at Ulladulla
Date/Time
EST
Temp
°C
App
Temp
°C
Dew
Point
°C
Rel
Hum
%
Delta-T
°C
Wind Press
QNH
hPa
Press
MSL
hPa
Rain since
9am
mm
Dir  Spd
km/h
Gust
km/h
Spd
kts
Gust
kts
26/03:30pm 17.4 15.4 10.1 62 3.9 NE 11 15 6 8 1014.2 1014.2 0.0
26/03:00pm 17.8 15.7 9.9 60 4.2 ENE 11 17 6 9 1014.4 1014.4 0.0
26/02:30pm 18.0 16.1 10.4 61 4.1 ENE 11 17 6 9 1014.8 1014.8 0.0
26/02:00pm 17.9 16.4 9.0 56 4.6 ESE 7 13 4 7 1015.0 1015.0 0.0
26/01:30pm 17.6 16.1 9.2 58 4.4 ESE 7 13 4 7 1015.4 1015.4 0.0
26/01:00pm 17.6 15.8 9.5 59 4.2 E 9 15 5 8 1015.8 1015.8 0.0
26/12:30pm 17.9 16.5 9.5 58 4.4 E 7 13 4 7 1016.1 1016.1 0.0
26/12:00pm 18.1 17.1 11.0 63 3.8 E 7 11 4 6 1016.4 1016.4 0.0
26/11:30am 17.7 16.6 10.6 63 3.8 E 7 13 4 7 1016.9 1016.9 0.0
26/11:00am 17.2 15.9 9.9 62 3.8 ENE 7 11 4 6 1017.2 1017.2 0.0
26/10:30am 17.5 16.5 11.1 66 3.5 ENE 7 11 4 6 1017.3 1017.3 0.0
26/10:00am 17.2 16.8 12.9 76 2.4 S 7 11 4 6 1017.7 1017.7 0.0
26/09:30am 16.9 16.3 12.2 74 2.6 S 7 9 4 5 1017.8 1017.8 0.0
26/09:00am 17.3 16.9 13.0 76 2.4 WSW 7 13 4 7 1017.7 1017.7 0.4
26/08:30am 16.1 15.0 12.1 77 2.2 WSW 9 13 5 7 1017.5 1017.5 0.4
26/08:00am 15.4 15.0 12.3 82 1.7 WSW 6 9 3 5 1017.3 1017.3 0.4
26/07:30am 14.3 13.7 11.6 84 1.4 WSW 6 9 3 5 1017.2 1017.2 0.4
26/07:00am 13.6 12.7 11.3 86 1.2 W 7 11 4 6 1017.0 1017.0 0.4
26/06:30am 13.1 12.1 11.0 87 1.1 W 7 11 4 6 1017.1 1017.1 0.4
26/06:00am 12.2 11.0 10.3 88 1.0 W 7 9 4 5 1017.0 1017.0 0.4
26/05:30am 11.6 9.8 9.5 87 1.1 W 9 11 5 6 1016.9 1016.9 0.4
26/05:00am 11.7 10.3 9.4 86 1.2 W 7 9 4 5 1016.9 1016.9 0.4
26/04:30am 12.4 11.4 10.3 87 1.1 SW 6 9 3 5 1016.7 1016.7 0.4
26/04:00am 12.3 10.7 10.2 87 1.1 W 9 13 5 7 1016.7 1016.7 0.4
26/03:30am 12.4 11.3 10.5 88 1.0 W 7 11 4 6 1016.3 1016.3 0.4
26/03:00am 12.4 11.3 10.6 89 0.9 SW 7 11 4 6 1016.4 1016.4 0.4
26/02:30am 13.0 13.4 11.1 88 1.0 CALM 0 0 0 0 1016.5 1016.5 0.4
26/02:00am 13.2 13.3 11.4 89 1.0 WSW 2 2 1 1 1016.9 1016.9 0.4
26/01:30am 13.2 13.7 11.6 90 0.9 CALM 0 0 0 0 1017.0 1017.0 0.4
26/01:00am 12.7 12.7 11.1 90 0.8 WSW 2 4 1 2 1017.3 1017.3 0.4
26/12:30am 12.7 12.6 10.9 89 0.9 W 2 4 1 2 1017.4 1017.4 0.4
26/12:00am 12.3 12.1 10.4 88 1.0 NW 2 4 1 2 1017.7 1017.7 0.4
 
Date/Time
EST
Temp
°C
App
Temp
°C
Dew
Point
°C
Rel
Hum
%
Delta-T
°C
Wind Press
QNH
hPa
Press
MSL
hPa
Rain since
9am
mm
Dir  Spd
km/h
Gust
km/h
Spd
kts
Gust
kts
25/11:30pm 12.9 13.2 11.0 88 1.0 CALM 0 0 0 0 1017.5 1017.5 0.0
25/11:00pm 13.0 12.5 10.9 87 1.1 NW 4 6 2 3 1017.7 1017.7 0.0
25/10:30pm 13.1 12.9 10.6 85 1.3 NW 2 4 1 2 1017.7 1017.7 0.0
25/10:00pm 13.7 13.3 11.2 85 1.3 NNW 4 6 2 3 1017.9 1017.9 0.0
25/09:30pm 14.0 14.0 11.3 84 1.4 NNW 2 4 1 2 1017.6 1017.6 0.0
25/09:00pm 14.7 15.1 11.3 80 1.8 CALM 0 0 0 0 1017.5 1017.5 0.0
25/08:30pm 15.8 15.7 12.0 78 2.1 N 4 6 2 3 1017.6 1017.6 0.0
25/08:00pm 16.0 15.8 11.8 76 2.3 NNE 4 9 2 5 1017.1 1017.1 0.0
25/07:30pm 16.1 15.8 11.5 74 2.5 ENE 4 6 2 3 1016.6 1016.6 0.0
25/07:00pm 16.1 15.4 11.5 74 2.5 NE 6 7 3 4 1016.1 1016.1 0.0
25/06:30pm 16.0 15.1 11.4 74 2.5 NE 7 9 4 5 1015.7 1015.7 0.0
25/06:00pm 16.0 15.1 11.2 73 2.6 NE 7 13 4 7 1015.3 1015.3 0.0
25/05:30pm 16.0 15.0 11.0 72 2.7 NE 7 13 4 7 1014.8 1014.8 0.0
25/05:00pm 16.2 15.1 10.7 70 2.9 ENE 7 15 4 8 1014.5 1014.5 0.0
25/04:30pm 16.7 15.7 11.0 69 3.1 ENE 7 11 4 6 1014.3 1014.3 0.0
25/04:00pm 16.9 15.9 11.0 68 3.2 ENE 7 15 4 8 1014.3 1014.3 0.0
25/03:30pm 17.5 16.7 11.8 69 3.1 E 7 13 4 7 1013.8 1013.8 0.0
25/03:00pm 17.7 16.9 11.7 68 3.3 E 7 11 4 6 1014.0 1014.0 0.0
25/02:30pm 17.7 17.0 11.9 69 3.2 ESE 7 13 4 7 1014.1 1014.1 0.0
25/02:00pm 17.3 16.0 11.1 67 3.3 ESE 9 15 5 8 1013.9 1013.9 0.0
25/01:30pm 17.3 16.1 11.6 69 3.1 ESE 9 15 5 8 1014.0 1014.0 0.0
25/01:00pm 17.2 16.3 11.2 68 3.2 ESE 7 13 4 7 1014.4 1014.4 0.0
25/12:30pm 17.3 16.6 12.0 71 2.9 SSE 7 13 4 7 1014.7 1014.7 0.0
25/12:00pm 17.0 16.3 12.1 73 2.7 S 7 13 4 7 1015.1 1015.1 0.0
25/11:30am 16.7 15.9 11.6 72 2.8 SSE 7 15 4 8 1015.3 1015.3 0.0
25/11:00am 16.2 14.9 11.2 72 2.7 S 9 15 5 8 1015.5 1015.5 0.0
25/10:30am 16.4 14.6 10.7 69 3.0 S 11 17 6 9 1015.9 1015.9 0.0
25/10:00am 16.2 14.0 10.9 71 2.8 S 13 17 7 9 1016.0 1016.0 0.0
25/09:30am 16.3 14.6 11.2 72 2.7 S 11 15 6 8 1016.0 1016.0 0.0
25/09:00am 16.0 14.7 11.2 73 2.6 SSW 9 13 5 7 1015.8 1015.8 5.4
25/08:30am 15.4 14.0 11.0 75 2.3 WSW 9 13 5 7 1015.7 1015.7 5.4
25/08:00am 14.5 13.8 11.5 82 1.6 SW 6 9 3 5 1015.6 1015.6 5.4
25/07:30am 13.2 12.1 10.7 85 1.3 SW 7 11 4 6 1015.4 1015.4 5.4
25/07:00am 12.7 12.6 10.9 89 0.9 WSW 2 6 1 3 1015.2 1015.2 5.4
25/06:30am 11.4 11.4 9.8 90 0.8 CALM 0 0 0 0 1015.0 1015.0 5.4
25/06:00am 10.4 9.7 8.7 89 0.8 WNW 2 6 1 3 1014.5 1014.5 5.4
25/05:30am 10.4 10.1 8.7 89 0.8 CALM 0 0 0 0 1014.2 1014.2 5.4
25/05:00am 11.0 10.9 9.3 89 0.9 CALM 0 4 0 2 1013.9 1013.9 5.4
25/04:30am 11.5 11.5 9.9 90 0.8 CALM 0 0 0 0 1013.7 1013.7 5.4
25/04:00am 11.2 11.1 9.5 89 0.9 CALM 0 0 0 0 1013.7 1013.7 5.4
25/03:30am 11.1 9.9 9.4 89 0.9 NNW 6 6 3 3 1013.6 1013.6 5.4
25/03:00am 11.6 10.5 9.9 89 0.9 N 6 7 3 4 1013.6 1013.6 5.4
25/02:30am 11.6 10.5 10.0 90 0.8 N 6 6 3 3 1013.6 1013.6 5.4
25/02:00am 11.6 10.6 10.2 91 0.7 NNW 6 6 3 3 1013.9 1013.9 5.4
25/01:30am 11.9 11.7 10.3 90 0.8 NNW 2 2 1 1 1013.9 1013.9 5.4
25/01:00am 12.3 12.5 10.4 88 1.0 CALM 0 0 0 0 1013.9 1013.9 5.4
25/12:30am 12.2 12.0 10.3 88 1.0 WNW 2 4 1 2 1014.1 1014.1 5.4
25/12:00am 12.3 11.3 10.4 88 1.0 WNW 6 9 3 5 1014.2 1014.2 5.4
 
Date/Time
EST
Temp
°C
App
Temp
°C
Dew
Point
°C
Rel
Hum
%
Delta-T
°C
Wind Press
QNH
hPa
Press
MSL
hPa
Rain since
9am
mm
Dir  Spd
km/h
Gust
km/h
Spd
kts
Gust
kts
24/11:30pm 13.1 13.1 11.3 89 1.0 WNW 2 6 1 3 1014.0 1014.0 5.4
24/11:00pm 13.1 12.2 11.5 90 0.8 WNW 7 11 4 6 1014.1 1014.1 5.4
24/10:30pm 13.1 12.4 11.5 90 0.8 WNW 6 9 3 5 1014.1 1014.1 5.4
24/10:00pm 12.7 11.9 11.1 90 0.8 WNW 6 9 3 5 1013.9 1013.9 5.4
24/09:30pm 13.0 11.8 11.6 91 0.7 WNW 9 15 5 8 1014.0 1014.0 5.4
24/09:00pm 13.2 13.0 11.8 91 0.7 NNE 4 6 2 3 1013.4 1013.4 5.0
24/08:30pm 13.2 11.2 11.4 89 1.0 SW 13 20 7 11 1014.3 1014.3 3.4
24/08:00pm 13.2 11.9 11.1 87 1.1 WNW 9 13 5 7 1013.9 1013.9 2.6
24/07:30pm 13.1 12.1 11.0 87 1.1 WNW 7 11 4 6 1013.6 1013.6 2.6
24/07:00pm 13.3 12.4 11.4 88 1.0 NW 7 15 4 8 1013.1 1013.1 2.6
24/06:30pm 13.9 13.1 11.6 86 1.2 NE 7 9 4 5 1012.0 1012.0 2.6
24/06:00pm 14.2 13.3 11.5 84 1.4 NNW 7 11 4 6 1012.2 1012.2 1.6
24/05:30pm 16.1 14.8 11.3 73 2.6 NW 9 20 5 11 1012.3 1012.3 0.0
24/05:00pm 15.8 16.1 11.0 73 2.6 CALM 0 0 0 0 1011.1 1011.1 0.0
24/04:30pm 16.0 14.7 10.1 68 3.1 S 7 11 4 6 1010.2 1010.2 0.0
24/04:00pm 17.1 16.0 10.7 66 3.4 SSE 7 11 4 6 1009.8 1009.8 0.0
24/03:30pm 17.5 16.4 11.8 69 3.1 SSE 9 17 5 9 1009.7 1009.7 0.0
24/03:00pm 17.4 16.1 11.2 67 3.4 S 9 13 5 7 1009.7 1009.7 0.0
24/02:30pm 17.4 16.3 11.9 70 3.0 SSE 9 17 5 9 1009.5 1009.5 0.0
24/02:00pm 17.0 15.7 11.1 68 3.2 SSE 9 15 5 8 1009.6 1009.6 0.0
24/01:30pm 16.9 16.1 11.6 71 2.9 S 7 11 4 6 1009.8 1009.8 0.0
24/01:00pm 17.5 16.3 11.5 68 3.3 S 9 13 5 7 1009.9 1009.9 0.0
24/12:30pm 16.9 15.0 10.5 66 3.4 S 11 15 6 8 1010.3 1010.3 0.0
24/12:00pm 17.8 16.7 11.8 68 3.3 S 9 13 5 7 1010.5 1010.5 0.0
24/11:30am 17.6 16.2 12.1 70 3.0 SW 11 17 6 9 1010.9 1010.9 0.0
24/11:00am 16.1 14.6 11.9 76 2.3 SW 11 15 6 8 1011.4 1011.4 0.0
24/10:30am 16.2 14.4 12.2 77 2.2 SW 13 20 7 11 1011.8 1011.8 0.0
24/10:00am 15.7 14.6 13.0 84 1.5 WSW 11 20 6 11 1011.9 1011.9 0.0
24/09:30am 15.4 14.0 13.4 88 1.1 SW 13 20 7 11 1011.9 1011.9 0.0
24/09:00am 14.8 14.1 13.2 90 0.9 SW 9 13 5 7 1011.6 1011.6 4.8
24/08:30am 14.3 13.1 12.9 91 0.8 SW 11 17 6 9 1011.3 1011.3 4.8
24/08:00am 13.7 10.2 12.3 91 0.8 SSW 22 32 12 17 1011.2 1011.2 4.8
24/07:30am 13.2 10.9 11.9 92 0.7 SW 15 26 8 14 1011.1 1011.1 4.6
24/07:00am 13.3 11.4 11.9 91 0.8 WSW 13 20 7 11 1011.3 1011.3 2.8
24/06:30am 13.4 10.2 11.8 90 0.9 SW 20 28 11 15 1010.7 1010.7 1.6
24/06:00am 14.1 10.6 12.3 89 1.0 SW 22 33 12 18 1010.4 1010.4 1.2
24/05:30am 14.2 10.5 12.6 90 0.9 SSW 24 37 13 20 1010.1 1010.1 1.2
24/05:00am 14.2 8.7 12.6 90 0.9 SSW 33 46 18 25 1009.8 1009.8 1.2
24/04:30am 14.7 10.3 12.9 89 1.0 SSW 28 41 15 22 1009.8 1009.8 1.0
24/04:00am 14.8 10.9 13.2 90 0.9 SSW 26 33 14 18 1009.7 1009.7 1.0
24/03:30am 15.4 13.5 14.1 92 0.7 SW 17 33 9 18 1009.5 1009.5 1.0
24/03:00am 15.2 16.4 13.9 92 0.7 CALM 0 0 0 0 1009.0 1009.0 1.0
24/02:30am 15.4 16.7 14.1 92 0.7 CALM 0 4 0 2 1009.1 1009.1 1.0
24/02:00am 15.8 16.1 14.5 92 0.7 N 6 9 3 5 1009.3 1009.3 1.0
24/01:30am 15.9 16.0 14.4 91 0.9 N 7 11 4 6 1009.8 1009.8 1.0
24/01:00am 16.1 16.2 14.5 90 0.9 NNE 7 13 4 7 1010.1 1010.1 1.0
24/12:30am 16.2 16.5 14.6 90 0.9 NNE 6 9 3 5 1010.3 1010.3 1.0
24/12:00am 16.2 16.9 14.4 89 1.0 NNE 4 9 2 5 1010.7 1010.7 1.0
 
Date/Time
EST
Temp
°C
App
Temp
°C
Dew
Point
°C
Rel
Hum
%
Delta-T
°C
Wind Press
QNH
hPa
Press
MSL
hPa
Rain since
9am
mm
Dir  Spd
km/h
Gust
km/h
Spd
kts
Gust
kts
23/11:30pm 16.4 16.1 14.4 88 1.1 N 9 13 5 7 1011.0 1011.0 1.0
23/11:00pm 16.4 16.6 14.6 89 1.0 N 7 13 4 7 1011.5 1011.5 1.0
23/10:30pm 16.5 15.9 14.7 89 1.0 N 11 19 6 10 1011.8 1011.8 1.0
23/10:00pm 16.4 15.8 14.6 89 1.0 N 11 17 6 9 1012.1 1012.1 1.0
23/09:30pm 16.6 14.9 14.8 89 1.0 N 17 22 9 12 1012.2 1012.2 1.0
23/09:00pm 16.7 15.0 14.7 88 1.2 N 17 24 9 13 1012.5 1012.5 1.0
23/08:30pm 16.4 15.0 14.6 89 1.0 N 15 20 8 11 1012.6 1012.6 1.0
23/08:00pm 16.5 14.7 14.5 88 1.1 N 17 20 9 11 1012.9 1012.9 1.0
23/07:30pm 16.6 14.5 14.8 89 1.0 N 19 28 10 15 1012.9 1012.9 1.0
23/07:00pm 16.5 16.3 14.7 89 1.0 N 9 20 5 11 1012.8 1012.8 1.0
23/06:30pm 16.8 16.8 15.2 90 0.9 N 9 17 5 9 1012.8 1012.8 0.6
23/06:00pm 17.2 17.5 15.0 87 1.3 NNE 7 13 4 7 1012.9 1012.9 0.2
23/05:30pm 17.2 17.6 14.8 86 1.4 N 6 9 3 5 1012.8 1012.8 0.0
23/05:00pm 17.2 17.4 14.7 85 1.4 ENE 7 15 4 8 1012.8 1012.8 0.0
23/04:30pm 17.8 18.3 14.9 83 1.7 ENE 6 9 3 5 1012.8 1012.8 0.0
23/04:00pm 17.9 17.1 15.2 84 1.6 NE 13 20 7 11 1012.4 1012.4 0.0

Other formats

Comma delimited format used in spreadsheet applications
http://www.bom.gov.au/fwo/IDN60801/IDN60801.94938.axf

JavaScript Object Notation format (JSON) in row-major order
http://www.bom.gov.au/fwo/IDN60801/IDN60801.94938.json

Data quality

Most of these data are generated automatically and are frequently updated. Quality checks on data are not normally performed. It is possible for incorrect values to appear. Refer to information at About Latest Weather Observations and please check the disclaimer before using these data.